KOMK/OMK METAR and TAF weather

Enter ICAO airport designator
Station Type Date Time Source
KOMK METAR 2019/10/23 12:53 UTC NOAA

KOMK 231253Z AUTO 09003KT 10SM CLR 03/M02 A3041 RMK AO2 SLP305 T00281017


Station Type Date Time Source
KOMK Decoded METAR 2019/10/23 12:53 UTC NOAA

OMAK AIRPORT, WA, United States (KOMK) 48-28N 119-31W 395M
Oct 23, 2019 - 08:53 AM EDT / 2019.10.23 1253 UTC
Wind: from the E (090 degrees) at 3 MPH (3 KT):0
Visibility: 10 mile(s):0
Sky conditions: clear
Temperature: 37.0 F (2.8 C)
Dew Point: 28.9 F (-1.7 C)
Relative Humidity: 72%
Pressure (altimeter): 30.41 in. Hg (1029 hPa)
ob: KOMK 231253Z AUTO 09003KT 10SM CLR 03/M02 A3041 RMK AO2 SLP305 T00281017
cycle: 13

Station Type Date Time Source
KOMK TAF UTC NOAA

Error!

Example: see airport list